createdAt,value
2019-03-04T00:02:13.707Z,98957.36
2019-03-04T00:04:41.349Z,98946.85
2019-03-04T00:07:08.993Z,98951.28
2019-03-04T00:09:36.630Z,98943.34
2019-03-04T00:12:04.268Z,98942.52
2019-03-04T00:14:31.937Z,98942.02
2019-03-04T00:19:25.510Z,98947.67
2019-03-04T00:21:53.156Z,98939.91
2019-03-04T00:24:20.818Z,98943.78
2019-03-04T00:26:48.462Z,98943.81
2019-03-04T00:31:42.040Z,98948.64
2019-03-04T00:36:35.611Z,98927.83
2019-03-04T00:39:04.424Z,98927.72
2019-03-04T00:41:32.066Z,98922.11
2019-03-04T00:43:59.787Z,98921.58
2019-03-04T00:46:27.437Z,98912.58
2019-03-04T00:51:21.865Z,98894.53
2019-03-04T00:53:49.519Z,98895.02
2019-03-04T00:56:17.161Z,98881.23
2019-03-04T00:58:44.802Z,98881.60
2019-03-04T01:01:12.445Z,98884.12
2019-03-04T01:03:40.096Z,98882.73
2019-03-04T01:06:07.724Z,98886.61
2019-03-04T01:08:35.374Z,98890.52
2019-03-04T01:11:03.052Z,98887.24
2019-03-04T01:13:30.690Z,98888.09
2019-03-04T01:15:58.329Z,98876.73
2019-03-04T01:18:26.042Z,98893.05
2019-03-04T01:20:53.686Z,98879.61
2019-03-04T01:23:21.329Z,98870.50
2019-03-04T01:25:48.969Z,98872.80
2019-03-04T01:28:16.605Z,98864.54
2019-03-04T01:30:44.262Z,98854.30
2019-03-04T01:35:37.854Z,98835.26
2019-03-04T01:38:05.495Z,98827.54
2019-03-04T01:40:33.140Z,98824.11
2019-03-04T01:43:00.776Z,98821.48
2019-03-04T01:45:28.415Z,98817.56
2019-03-04T01:47:56.050Z,98811.01
2019-03-04T01:50:23.700Z,98809.28
2019-03-04T01:52:51.345Z,98799.18
2019-03-04T01:55:18.987Z,98787.93
2019-03-04T01:57:46.619Z,98767.68
2019-03-04T02:00:14.268Z,98768.02
2019-03-04T02:02:41.909Z,98769.91
2019-03-04T02:05:09.539Z,98766.52
2019-03-04T02:07:37.183Z,98767.41
2019-03-04T02:10:04.832Z,98758.82
2019-03-04T02:12:32.475Z,98765.64
2019-03-04T02:15:00.325Z,98771.75
2019-03-04T02:17:28.061Z,98766.97
2019-03-04T02:19:55.998Z,98767.41
2019-03-04T02:22:23.647Z,98773.77
2019-03-04T02:24:51.283Z,98768.13
2019-03-04T02:27:18.919Z,98765.17
2019-03-04T02:29:46.565Z,98770.86
2019-03-04T02:32:14.207Z,98763.58
2019-03-04T02:34:41.876Z,98775.23
2019-03-04T02:37:09.521Z,98777.44
2019-03-04T02:39:37.158Z,98759.75
2019-03-04T02:42:04.815Z,98766.61
2019-03-04T02:44:32.458Z,98764.02
2019-03-04T02:47:00.101Z,98764.50
2019-03-04T02:49:27.755Z,98763.15
2019-03-04T02:51:55.410Z,98751.05
2019-03-04T02:54:23.083Z,98753.97
2019-03-04T02:56:50.791Z,98748.31
2019-03-04T02:59:18.435Z,98748.69
2019-03-04T03:01:46.153Z,98760.78
2019-03-04T03:04:13.870Z,98756.77
2019-03-04T03:06:41.530Z,98746.34
2019-03-04T03:09:09.174Z,98748.97
2019-03-04T03:11:36.836Z,98742.83
2019-03-04T03:14:04.474Z,98733.77
2019-03-04T03:16:32.118Z,98725.11
2019-03-04T03:18:59.758Z,98724.29
2019-03-04T03:21:27.409Z,98717.68
2019-03-04T03:23:55.044Z,98715.48
2019-03-04T03:26:22.695Z,98710.56
2019-03-04T03:28:50.336Z,98712.66
2019-03-04T03:31:17.970Z,98709.05
2019-03-04T03:33:45.596Z,98696.73
2019-03-04T03:36:13.240Z,98690.28
2019-03-04T03:38:40.952Z,98698.05
2019-03-04T03:41:08.601Z,98689.80
2019-03-04T03:43:36.251Z,98691.08
2019-03-04T03:46:03.901Z,98685.38
2019-03-04T03:48:31.536Z,98678.00
2019-03-04T03:50:59.182Z,98664.66
2019-03-04T03:53:26.819Z,98657.45
2019-03-04T03:55:54.450Z,98682.94
2019-03-04T03:58:25.020Z,98682.36
2019-03-04T04:00:51.431Z,98690.39
2019-03-04T04:03:19.079Z,98674.47
2019-03-04T04:05:46.717Z,98664.04
2019-03-04T04:08:14.359Z,98653.95
2019-03-04T04:10:42.010Z,98661.63
2019-03-04T04:13:09.635Z,98657.58
2019-03-04T04:15:37.268Z,98650.16
2019-03-04T04:18:04.918Z,98651.92
2019-03-04T04:20:32.642Z,98648.66
2019-03-04T04:23:00.356Z,98648.06
2019-03-04T04:25:28.015Z,98647.19
2019-03-04T04:27:55.731Z,98638.12
2019-03-04T04:30:24.713Z,98637.13
2019-03-04T04:32:52.347Z,98634.05
2019-03-04T04:35:19.982Z,98632.31
2019-03-04T04:37:47.619Z,98615.52
2019-03-04T04:40:15.267Z,98611.59
2019-03-04T04:42:42.906Z,98608.88
2019-03-04T04:45:10.595Z,98607.09
2019-03-04T04:47:38.231Z,98609.22
2019-03-04T04:50:05.867Z,98596.78
2019-03-04T04:52:33.498Z,98590.90
2019-03-04T04:55:01.139Z,98582.19
2019-03-04T04:57:28.774Z,98569.39
2019-03-04T04:59:56.411Z,98563.81
2019-03-04T05:02:24.049Z,98552.70
2019-03-04T05:04:51.680Z,98551.08
2019-03-04T05:07:19.315Z,98545.14
2019-03-04T05:09:46.987Z,98537.48
2019-03-04T05:12:14.670Z,98532.46
2019-03-04T05:14:42.335Z,98524.33
2019-03-04T05:17:09.980Z,98522.59
2019-03-04T05:19:37.610Z,98518.29
2019-03-04T05:22:05.249Z,98509.27
2019-03-04T05:24:32.882Z,98514.48
2019-03-04T05:27:00.539Z,98514.91
2019-03-04T05:29:28.202Z,98507.63
2019-03-04T05:31:55.838Z,98505.95
2019-03-04T05:34:23.474Z,98497.06
2019-03-04T05:36:51.197Z,98494.89
2019-03-04T05:39:18.838Z,98475.09
2019-03-04T05:41:46.485Z,98466.92
2019-03-04T05:44:14.157Z,98464.78
2019-03-04T05:46:41.800Z,98463.03
2019-03-04T05:49:09.444Z,98461.30
2019-03-04T05:51:37.091Z,98455.25
2019-03-04T05:54:04.731Z,98462.03
2019-03-04T05:56:32.370Z,98447.86
2019-03-04T05:59:00.015Z,98453.46
2019-03-04T06:01:27.940Z,98458.56
2019-03-04T06:03:55.581Z,98451.27
2019-03-04T06:06:28.583Z,98452.52
2019-03-04T06:08:56.221Z,98443.41
2019-03-04T06:11:23.864Z,98452.86
2019-03-04T06:13:51.496Z,98453.30
2019-03-04T06:16:19.145Z,98439.00
2019-03-04T06:18:46.773Z,98438.44
2019-03-04T06:21:14.411Z,98430.31
2019-03-04T06:23:42.054Z,98423.78
2019-03-04T06:26:09.698Z,98415.30
2019-03-04T06:28:37.370Z,98405.41
2019-03-04T06:31:05.046Z,98395.48
2019-03-04T06:33:32.679Z,98393.73
2019-03-04T06:36:00.333Z,98391.98
2019-03-04T06:38:27.981Z,98379.46
2019-03-04T06:40:55.630Z,98388.16
2019-03-04T06:43:23.289Z,98386.01
2019-03-04T06:45:50.926Z,98386.85
2019-03-04T06:48:18.574Z,98374.33
2019-03-04T06:50:46.216Z,98366.94
2019-03-04T06:53:13.850Z,98361.30
2019-03-04T06:55:41.499Z,98367.34
2019-03-04T06:58:09.163Z,98359.16
2019-03-04T07:00:36.807Z,98359.52
2019-03-04T07:03:04.455Z,98366.30
2019-03-04T07:05:32.115Z,98378.83
2019-03-04T07:07:59.755Z,98372.75
2019-03-04T07:10:27.405Z,98375.81
2019-03-04T07:12:55.077Z,98372.32
2019-03-04T07:15:22.740Z,98352.48
2019-03-04T07:17:50.384Z,98358.96
2019-03-04T07:20:18.035Z,98363.09
2019-03-04T07:22:45.675Z,98341.98
2019-03-04T07:25:13.327Z,98346.80
2019-03-04T07:27:40.986Z,98326.00
2019-03-04T07:30:08.645Z,98328.12
2019-03-04T07:32:36.299Z,98335.50
2019-03-04T07:35:03.954Z,98328.66
2019-03-04T07:37:31.586Z,98320.84
2019-03-04T07:39:59.236Z,98305.77
2019-03-04T07:42:26.879Z,98300.61
2019-03-04T07:44:54.629Z,98298.92
2019-03-04T07:47:22.421Z,98309.73
2019-03-04T07:49:50.083Z,98309.85
2019-03-04T07:52:17.740Z,98297.24
2019-03-04T07:54:45.396Z,98292.05
2019-03-04T07:57:13.036Z,98283.36
2019-03-04T07:59:40.683Z,98274.28
2019-03-04T08:02:08.348Z,98267.02
2019-03-04T08:04:36.028Z,98245.75
2019-03-04T08:07:03.685Z,98245.09
2019-03-04T08:09:31.436Z,98233.75
2019-03-04T08:11:59.069Z,98239.89
2019-03-04T08:14:26.725Z,98234.13
2019-03-04T08:16:54.381Z,98231.19
2019-03-04T08:19:22.049Z,98216.55
2019-03-04T08:21:49.746Z,98204.58
2019-03-04T08:24:17.406Z,98189.20
2019-03-04T08:26:45.065Z,98177.58
2019-03-04T08:29:12.703Z,98162.43
2019-03-04T08:31:40.351Z,98164.71
2019-03-04T08:34:09.371Z,98161.77
2019-03-04T08:36:37.224Z,98162.75
2019-03-04T08:39:05.211Z,98149.64
2019-03-04T08:41:32.860Z,98149.30
2019-03-04T08:44:00.503Z,98142.91
2019-03-04T08:46:28.153Z,98144.67
2019-03-04T08:48:55.823Z,98135.99
2019-03-04T08:51:23.470Z,98141.56
2019-03-04T08:53:51.172Z,98129.39
2019-03-04T08:56:18.816Z,98125.03
2019-03-04T08:58:46.467Z,98125.45
2019-03-04T09:01:14.113Z,98128.20
2019-03-04T09:03:41.777Z,98124.27
2019-03-04T09:06:09.555Z,98119.95
2019-03-04T09:08:37.196Z,98123.50
2019-03-04T09:11:04.842Z,98105.41
2019-03-04T09:13:32.492Z,98120.95
2019-03-04T09:16:00.140Z,98109.43
2019-03-04T09:18:27.803Z,98109.34
2019-03-04T09:20:55.480Z,98105.94
2019-03-04T09:23:23.161Z,98102.44
2019-03-04T09:25:50.818Z,98105.36
2019-03-04T09:28:18.479Z,98098.73
2019-03-04T09:30:46.198Z,98110.34
2019-03-04T09:33:13.845Z,98099.39
2019-03-04T09:35:41.495Z,98100.68
2019-03-04T09:38:09.130Z,98091.94
2019-03-04T09:40:36.775Z,98093.54
2019-03-04T09:43:04.407Z,98091.80
2019-03-04T09:45:38.696Z,98095.65
2019-03-04T09:48:01.482Z,98095.34
2019-03-04T09:50:29.160Z,98083.54
2019-03-04T09:52:56.801Z,98088.80
2019-03-04T09:55:24.454Z,98109.51
2019-03-04T09:57:52.095Z,98098.84
2019-03-04T10:00:19.819Z,98099.32
2019-03-04T10:02:47.463Z,98091.05
2019-03-04T10:05:15.131Z,98093.45
2019-03-04T10:07:42.908Z,98096.57
2019-03-04T10:10:10.559Z,98074.92
2019-03-04T10:12:38.210Z,98058.84
2019-03-04T10:15:08.792Z,98055.17
2019-03-04T10:17:35.282Z,98064.31
2019-03-04T10:20:02.937Z,98068.02
2019-03-04T10:22:30.598Z,98075.66
2019-03-04T10:24:58.250Z,98058.39
2019-03-04T10:27:25.891Z,98063.20
2019-03-04T10:29:53.544Z,98062.78
2019-03-04T10:32:21.259Z,98056.42
2019-03-04T10:34:48.924Z,98064.52
2019-03-04T10:37:16.583Z,98066.88
2019-03-04T10:39:44.294Z,98070.73
2019-03-04T10:42:11.969Z,98077.80
2019-03-04T10:44:39.627Z,98065.63
2019-03-04T10:47:07.279Z,98068.44
2019-03-04T10:49:34.924Z,98070.41
2019-03-04T10:52:02.566Z,98094.13
2019-03-04T10:54:30.244Z,98058.98
2019-03-04T10:56:57.896Z,98058.77
2019-03-04T11:01:51.497Z,98051.54
2019-03-04T11:04:19.141Z,98031.84
2019-03-04T11:06:46.790Z,98005.37
2019-03-04T11:09:14.448Z,98005.72
2019-03-04T11:14:08.019Z,97987.60
2019-03-04T11:16:35.692Z,97978.55
2019-03-04T11:21:29.263Z,97977.59
2019-03-04T11:23:56.910Z,97962.08
2019-03-04T11:26:24.561Z,97954.80
2019-03-04T11:28:52.205Z,97953.80
2019-03-04T11:31:19.931Z,97963.53
2019-03-04T11:33:47.576Z,97973.70
2019-03-04T11:36:15.252Z,97964.11
2019-03-04T11:38:42.962Z,97963.67
2019-03-04T11:41:10.616Z,97974.34
2019-03-04T11:43:38.272Z,97987.09
2019-03-04T11:46:06.046Z,97969.04
2019-03-04T11:48:33.693Z,97943.77
2019-03-04T11:51:01.407Z,97942.16
2019-03-04T11:53:29.261Z,97941.39
2019-03-04T11:55:56.917Z,97941.19
2019-03-04T11:58:24.578Z,97912.39
2019-03-04T12:00:59.387Z,97933.89
2019-03-04T12:03:27.207Z,97935.87
2019-03-04T12:05:54.858Z,97948.33
2019-03-04T12:08:22.503Z,97951.66
2019-03-04T12:10:50.277Z,97941.13
2019-03-04T12:13:18.165Z,97911.61
2019-03-04T12:15:45.810Z,97908.36
2019-03-04T12:18:13.446Z,97908.66
2019-03-04T12:20:41.100Z,97920.73
2019-03-04T12:23:08.754Z,97928.90
2019-03-04T12:25:36.444Z,97909.53
2019-03-04T12:28:04.107Z,97918.16
2019-03-04T12:30:31.768Z,97916.63
2019-03-04T12:32:59.516Z,97913.59
2019-03-04T12:35:27.174Z,97908.34
2019-03-04T12:37:54.837Z,97914.64
2019-03-04T12:42:49.486Z,97912.84
2019-03-04T12:45:17.168Z,97960.58
2019-03-04T12:47:44.930Z,97926.53
2019-03-04T12:52:38.498Z,97937.47
2019-03-04T12:55:06.146Z,97939.56
2019-03-04T12:57:33.870Z,97941.48
2019-03-04T13:02:27.527Z,97937.66
2019-03-04T13:04:55.166Z,97936.98
2019-03-04T13:07:22.892Z,97940.59
2019-03-04T13:09:51.116Z,97948.14
2019-03-04T13:12:18.775Z,97951.19
2019-03-04T13:14:46.407Z,97937.77
2019-03-04T13:17:14.051Z,97940.83
2019-03-04T13:19:41.698Z,97942.63
2019-03-04T13:22:09.440Z,97940.86
2019-03-04T13:24:37.104Z,97922.99
2019-03-04T13:27:04.745Z,97896.71
2019-03-04T13:29:32.411Z,97895.63
2019-03-04T13:32:00.075Z,97900.35
2019-03-04T13:34:27.866Z,97920.52
2019-03-04T13:36:55.531Z,97912.53
2019-03-04T13:39:23.166Z,97928.65
2019-03-04T13:41:50.828Z,97915.94
2019-03-04T13:44:18.491Z,97926.77
2019-03-04T13:46:46.274Z,97921.42
2019-03-04T13:49:13.939Z,97912.40
2019-03-04T13:51:41.651Z,97912.86
2019-03-04T13:54:09.298Z,97943.52
2019-03-04T13:56:36.945Z,97973.31
2019-03-04T13:59:04.592Z,97978.94
2019-03-04T14:01:32.262Z,97980.25
2019-03-04T14:04:00.186Z,97992.77
2019-03-04T14:06:27.861Z,98014.04
2019-03-04T14:08:55.580Z,97984.79
2019-03-04T14:11:23.211Z,97966.91
2019-03-04T14:13:51.031Z,97981.11
2019-03-04T14:16:18.678Z,97981.77
2019-03-04T14:18:46.334Z,97980.83
2019-03-04T14:21:13.984Z,97966.19
2019-03-04T14:23:41.657Z,97953.28
2019-03-04T14:26:09.316Z,97959.05
2019-03-04T14:28:36.962Z,97971.05
2019-03-04T14:31:04.599Z,97971.48
2019-03-04T14:33:32.243Z,97968.89
2019-03-04T14:35:59.902Z,97967.99
2019-03-04T14:38:27.559Z,97980.19
2019-03-04T14:40:55.238Z,97977.00
2019-03-04T14:43:22.890Z,97961.62
2019-03-04T14:45:50.552Z,97963.26
2019-03-04T14:48:18.214Z,97967.50
2019-03-04T14:50:45.888Z,97957.20
2019-03-04T14:53:13.540Z,97957.20
2019-03-04T14:55:41.291Z,97955.91
2019-03-04T14:58:08.955Z,97955.88
2019-03-04T15:00:38.093Z,97948.11
2019-03-04T15:03:05.746Z,97963.61
2019-03-04T15:05:33.493Z,97966.30
2019-03-04T15:08:01.157Z,97985.78
2019-03-04T15:10:28.860Z,97978.44
2019-03-04T15:12:56.500Z,97977.64
2019-03-04T15:15:24.154Z,97986.46
2019-03-04T15:17:51.802Z,97984.44
2019-03-04T15:20:19.451Z,97970.00
2019-03-04T15:22:47.100Z,97979.23
2019-03-04T15:25:14.754Z,97992.73
2019-03-04T15:27:42.433Z,98003.56
2019-03-04T15:30:10.086Z,97988.95
2019-03-04T15:32:37.739Z,97996.38
2019-03-04T15:35:05.412Z,97992.67
2019-03-04T15:37:33.718Z,97997.04
2019-03-04T15:40:01.470Z,97990.88
2019-03-04T15:42:29.132Z,97973.31
2019-03-04T15:44:56.811Z,97995.13
2019-03-04T15:47:24.454Z,98006.83
2019-03-04T15:49:52.515Z,98008.11
2019-03-04T15:52:20.220Z,98000.41
2019-03-04T15:54:47.872Z,97996.58
2019-03-04T15:57:15.554Z,97983.73
2019-03-04T15:59:43.290Z,97991.05
2019-03-04T16:02:10.971Z,97970.58
2019-03-04T16:04:38.731Z,97961.62
2019-03-04T16:07:06.800Z,97952.03
2019-03-04T16:09:34.543Z,97931.27
2019-03-04T16:12:02.240Z,97930.92
2019-03-04T16:14:29.919Z,97917.25
2019-03-04T16:16:57.795Z,97897.86
2019-03-04T16:19:25.449Z,97895.14
2019-03-04T16:21:53.114Z,97903.42
2019-03-04T16:24:20.778Z,97900.31
2019-03-04T16:26:48.623Z,97939.03
2019-03-04T16:29:16.334Z,97936.55
2019-03-04T16:31:43.996Z,97951.11
2019-03-04T16:34:11.651Z,97984.98
2019-03-04T16:36:39.296Z,97989.80
2019-03-04T16:39:06.938Z,97994.94
2019-03-04T16:41:34.575Z,97996.53
2019-03-04T16:44:02.350Z,97988.50
2019-03-04T16:46:30.012Z,97992.34
2019-03-04T16:48:57.657Z,97976.33
2019-03-04T16:51:25.299Z,98004.73
2019-03-04T16:53:52.940Z,98008.45
2019-03-04T16:56:20.585Z,98043.66
2019-03-04T16:58:48.226Z,98103.87
2019-03-04T17:01:15.866Z,98113.66
2019-03-04T17:03:43.538Z,98062.29
2019-03-04T17:06:11.205Z,98091.79
2019-03-04T17:08:38.923Z,98067.28
2019-03-04T17:11:06.567Z,98059.81
2019-03-04T17:13:34.214Z,98063.33
2019-03-04T17:16:01.847Z,98072.44
2019-03-04T17:18:29.490Z,98080.61
2019-03-04T17:20:57.126Z,98106.94
2019-03-04T17:23:24.787Z,98113.39
2019-03-04T17:25:52.519Z,98111.20
2019-03-04T17:28:20.176Z,98097.67
2019-03-04T17:30:47.926Z,98096.40
2019-03-04T17:33:15.563Z,98112.88
2019-03-04T17:35:43.216Z,98108.14
2019-03-04T17:38:10.850Z,98098.69
2019-03-04T17:40:38.503Z,98096.55
2019-03-04T17:43:06.166Z,98093.53
2019-03-04T17:45:34.736Z,98093.95
2019-03-04T17:48:02.379Z,98093.44
2019-03-04T17:50:30.031Z,98097.31
2019-03-04T17:52:57.663Z,98101.27
2019-03-04T17:55:25.312Z,98085.69
2019-03-04T17:57:52.955Z,98093.44
2019-03-04T18:00:20.605Z,98097.84
2019-03-04T18:02:48.241Z,98111.64
2019-03-04T18:05:15.883Z,98110.70
2019-03-04T18:07:43.523Z,98109.90
2019-03-04T18:10:11.178Z,98124.04
2019-03-04T18:12:38.829Z,98119.31
2019-03-04T18:15:06.493Z,98118.05
2019-03-04T18:17:34.144Z,98180.48
2019-03-04T18:20:01.834Z,98218.05
2019-03-04T18:22:29.470Z,98263.04
2019-03-04T18:24:57.110Z,98274.61
2019-03-04T18:27:24.764Z,98296.52
2019-03-04T18:29:52.503Z,98296.78
2019-03-04T18:32:20.140Z,98311.42
2019-03-04T18:34:47.795Z,98310.46
2019-03-04T18:37:15.429Z,98325.84
2019-03-04T18:39:43.183Z,98335.70
2019-03-04T18:42:10.819Z,98336.92
2019-03-04T18:44:38.463Z,98341.78
2019-03-04T18:47:06.090Z,98345.73
2019-03-04T18:49:33.733Z,98342.92
2019-03-04T18:52:01.374Z,98331.02
2019-03-04T18:54:29.022Z,98328.44
2019-03-04T18:56:56.742Z,98324.84
2019-03-04T18:59:24.390Z,98321.23
2019-03-04T19:01:52.028Z,98328.83
2019-03-04T19:04:19.680Z,98325.84
2019-03-04T19:06:47.342Z,98330.60
2019-03-04T19:09:14.995Z,98316.59
2019-03-04T19:11:42.730Z,98327.44
2019-03-04T19:14:10.368Z,98334.91
2019-03-04T19:16:38.019Z,98341.88
2019-03-04T19:19:05.639Z,98344.27
2019-03-04T19:21:33.287Z,98337.09
2019-03-04T19:24:00.933Z,98344.83
2019-03-04T19:26:28.571Z,98345.14
2019-03-04T19:28:56.203Z,98345.21
2019-03-04T19:31:23.847Z,98351.59
2019-03-04T19:33:51.571Z,98362.77
2019-03-04T19:36:19.238Z,98364.05
2019-03-04T19:38:46.934Z,98357.11
2019-03-04T19:41:14.581Z,98364.09
2019-03-04T19:43:42.210Z,98369.44
2019-03-04T19:46:09.861Z,98370.52
2019-03-04T19:48:37.496Z,98378.22
2019-03-04T19:51:05.144Z,98380.44
2019-03-04T19:53:32.851Z,98381.50
2019-03-04T19:56:00.607Z,98388.45
2019-03-04T19:58:28.249Z,98390.45
2019-03-04T20:00:56.800Z,98378.67
2019-03-04T20:03:24.414Z,98384.14
2019-03-04T20:05:52.046Z,98379.20
2019-03-04T20:08:19.715Z,98388.22
2019-03-04T20:10:47.374Z,98384.74
2019-03-04T20:13:15.039Z,98391.20
2019-03-04T20:15:42.769Z,98382.56
2019-03-04T20:18:10.407Z,98394.14
2019-03-04T20:20:38.047Z,98402.42
2019-03-04T20:23:05.683Z,98402.50
2019-03-04T20:25:33.318Z,98412.20
2019-03-04T20:28:00.954Z,98410.53
2019-03-04T20:30:28.639Z,98413.89
2019-03-04T20:32:56.286Z,98413.10
2019-03-04T20:35:23.927Z,98411.03
2019-03-04T20:37:51.570Z,98417.70
2019-03-04T20:40:19.207Z,98420.31
2019-03-04T20:42:46.870Z,98429.30
2019-03-04T20:45:14.704Z,98428.30
2019-03-04T20:47:42.363Z,98424.42
2019-03-04T20:50:10.006Z,98433.81
2019-03-04T20:52:37.639Z,98443.67
2019-03-04T20:55:05.278Z,98443.70
2019-03-04T20:57:32.937Z,98453.98
2019-03-04T21:00:00.574Z,98459.23
2019-03-04T21:02:28.210Z,98464.66
2019-03-04T21:04:55.856Z,98461.27
2019-03-04T21:07:23.491Z,98465.86
2019-03-04T21:09:51.132Z,98473.15
2019-03-04T21:12:18.770Z,98478.00
2019-03-04T21:14:46.413Z,98485.11
2019-03-04T21:17:14.043Z,98488.13
2019-03-04T21:19:41.688Z,98491.06
2019-03-04T21:22:09.338Z,98494.05
2019-03-04T21:24:36.976Z,98489.09
2019-03-04T21:27:04.615Z,98482.67
2019-03-04T21:29:32.252Z,98500.96
2019-03-04T21:31:59.897Z,98502.57
2019-03-04T21:34:27.593Z,98517.23
2019-03-04T21:36:55.246Z,98519.71
2019-03-04T21:39:22.874Z,98535.80
2019-03-04T21:41:50.524Z,98548.82
2019-03-04T21:44:18.146Z,98545.74
2019-03-04T21:46:45.783Z,98555.31
2019-03-04T21:49:13.493Z,98550.96
2019-03-04T21:51:41.241Z,98563.84
2019-03-04T21:54:08.887Z,98568.29
2019-03-04T21:56:36.533Z,98572.45
2019-03-04T21:59:04.177Z,98575.02
2019-03-04T22:01:31.811Z,98575.06
2019-03-04T22:03:59.518Z,98592.93
2019-03-04T22:06:27.165Z,98605.77
2019-03-04T22:08:54.794Z,98598.48
2019-03-04T22:11:22.432Z,98603.81
2019-03-04T22:13:50.081Z,98599.72
2019-03-04T22:16:17.702Z,98601.41
2019-03-04T22:18:45.348Z,98611.98
2019-03-04T22:21:16.767Z,98621.72
2019-03-04T22:23:42.374Z,98628.59
2019-03-04T22:26:10.148Z,98617.01
2019-03-04T22:28:37.858Z,98632.96
2019-03-04T22:31:05.513Z,98627.36
2019-03-04T22:33:33.311Z,98630.49
2019-03-04T22:36:01.007Z,98642.25
2019-03-04T22:38:28.653Z,98645.13
2019-03-04T22:40:56.305Z,98647.78
2019-03-04T22:43:23.951Z,98655.95
2019-03-04T22:45:51.609Z,98662.47
2019-03-04T22:48:19.259Z,98658.34
2019-03-04T22:50:46.903Z,98666.87
2019-03-04T22:53:14.544Z,98677.54
2019-03-04T22:55:42.176Z,98675.59
2019-03-04T22:58:09.813Z,98672.01
2019-03-04T23:00:39.033Z,98677.16
2019-03-04T23:03:06.831Z,98684.08
2019-03-04T23:05:34.476Z,98685.06
2019-03-04T23:08:02.115Z,98681.16
2019-03-04T23:10:29.755Z,98688.13
2019-03-04T23:12:57.407Z,98680.38
2019-03-04T23:15:25.033Z,98689.79
2019-03-04T23:17:52.685Z,98696.40
2019-03-04T23:20:20.339Z,98690.73
2019-03-04T23:22:47.974Z,98700.48
2019-03-04T23:25:15.617Z,98704.97
2019-03-04T23:27:43.277Z,98703.06
2019-03-04T23:30:11.002Z,98709.85
2019-03-04T23:32:38.634Z,98707.53
2019-03-04T23:35:06.285Z,98704.28
2019-03-04T23:37:33.927Z,98704.59
2019-03-04T23:40:01.568Z,98709.00
2019-03-04T23:42:29.199Z,98715.78
2019-03-04T23:44:56.842Z,98711.73
2019-03-04T23:47:24.554Z,98714.25
2019-03-04T23:49:52.261Z,98723.00
2019-03-04T23:52:19.939Z,98717.66
2019-03-04T23:54:47.582Z,98718.45
2019-03-04T23:57:15.226Z,98719.89
2019-03-04T23:59:42.860Z,98711.22
